Time;durP1;ratioP1;P1;durP2;ratioP2;P2;SDS_P1;SDS_P2;PMS_P1;PMS_P2;Temp;Humidity;BMP_temperature;BMP_pressure;BME280_temperature;BME280_humidity;BME280_pressure;Samples;Min_cycle;Max_cycle;Signal;HPM_P1;HPM_P2
2021/08/26 00:08:07;;;;;;;17.48;4.25;;;;;;;;;;5031978;28;20057;-72
2021/08/26 00:10:53;;;;;;;14.30;4.72;;;;;;;;;;5032003;28;20053;-73
2021/08/26 00:13:38;;;;;;;14.38;4.25;;;;;;;;;;5014790;28;20068;-74
2021/08/26 00:16:25;;;;;;;20.67;5.00;;;;;;;;;;4998328;28;20054;-73
2021/08/26 00:19:11;;;;;;;17.85;4.13;;;;;;;;;;5011978;28;20050;-73
2021/08/26 00:21:56;;;;;;;15.30;4.10;;;;;;;;;;5011991;28;20085;-73
2021/08/26 00:24:41;;;;;;;21.08;4.68;;;;;;;;;;5011036;28;20397;-73
2021/08/26 00:27:26;;;;;;;20.88;5.38;;;;;;;;;;5012126;28;20409;-72
2021/08/26 00:30:11;;;;;;;19.17;3.92;;;;;;;;;;5011712;28;20066;-73
2021/08/26 00:32:57;;;;;;;19.58;4.72;;;;;;;;;;4997855;28;20054;-73
2021/08/26 00:35:42;;;;;;;16.70;4.88;;;;;;;;;;5010721;28;20405;-73
2021/08/26 00:38:27;;;;;;;15.75;3.65;;;;;;;;;;5011132;28;20058;-72
2021/08/26 00:41:13;;;;;;;13.60;4.03;;;;;;;;;;5012695;28;20129;-73
2021/08/26 00:43:58;;;;;;;18.83;5.07;;;;;;;;;;5011230;28;20089;-72
2021/08/26 00:46:43;;;;;;;16.27;4.35;;;;;;;;;;5027567;28;20065;-72
2021/08/26 00:49:31;;;;;;;17.45;5.32;;;;;;;;;;5032448;28;20049;-73
2021/08/26 00:52:16;;;;;;;17.48;5.20;;;;;;;;;;5032639;28;20053;-73
2021/08/26 00:55:02;;;;;;;21.15;4.47;;;;;;;;;;5014384;28;20057;-73
2021/08/26 00:57:47;;;;;;;18.17;5.63;;;;;;;;;;5011228;28;20054;-73
2021/08/26 01:00:32;;;;;;;14.60;4.78;;;;;;;;;;5011329;28;20049;-73
2021/08/26 01:03:18;;;;;;;23.33;4.70;;;;;;;;;;5012249;28;20078;-74
2021/08/26 01:06:04;;;;;;;16.70;5.28;;;;;;;;;;4997383;28;20582;-73
2021/08/26 01:08:51;;;;;;;18.13;4.65;;;;;;;;;;4997717;28;20054;-73
2021/08/26 01:11:40;;;;;;;14.13;4.25;;;;;;;;;;4997546;28;20547;-73
2021/08/26 01:14:25;;;;;;;14.55;5.80;;;;;;;;;;4996021;28;20072;-73
2021/08/26 01:17:17;;;;;;;14.50;4.78;;;;;;;;;;4997127;28;20121;-72
2021/08/26 01:20:05;;;;;;;16.98;4.40;;;;;;;;;;5012214;28;20093;-73
2021/08/26 01:22:50;;;;;;;13.05;3.97;;;;;;;;;;4997222;28;20129;-73
2021/08/26 01:25:40;;;;;;;15.98;4.55;;;;;;;;;;4996528;28;20057;-73
2021/08/26 01:28:26;;;;;;;10.15;3.75;;;;;;;;;;4997564;28;20120;-74
2021/08/26 01:31:11;;;;;;;16.77;4.35;;;;;;;;;;4998008;28;20061;-74
2021/08/26 01:33:56;;;;;;;12.65;3.72;;;;;;;;;;5010856;28;20119;-74
2021/08/26 01:36:41;;;;;;;13.52;4.72;;;;;;;;;;5011668;28;20500;-74
2021/08/26 01:39:28;;;;;;;20.73;5.28;;;;;;;;;;5011336;28;20412;-74
2021/08/26 01:42:13;;;;;;;16.20;4.53;;;;;;;;;;5011441;28;20061;-74
2021/08/26 01:44:58;;;;;;;13.25;4.28;;;;;;;;;;5010727;28;20125;-72
2021/08/26 01:47:43;;;;;;;11.63;3.53;;;;;;;;;;5011994;28;20058;-73
2021/08/26 01:50:29;;;;;;;14.27;3.10;;;;;;;;;;5028264;28;20049;-73
2021/08/26 01:53:14;;;;;;;13.55;2.75;;;;;;;;;;5030398;28;20124;-73
2021/08/26 01:55:59;;;;;;;13.35;3.35;;;;;;;;;;5030308;28;20124;-74
2021/08/26 01:58:44;;;;;;;13.63;3.45;;;;;;;;;;5030371;28;20053;-73
2021/08/26 02:01:29;;;;;;;17.48;3.30;;;;;;;;;;5031736;28;20053;-73
2021/08/26 02:04:14;;;;;;;18.25;3.65;;;;;;;;;;5017140;28;20054;-73
2021/08/26 02:06:59;;;;;;;16.88;3.90;;;;;;;;;;5010421;28;20058;-73
2021/08/26 02:09:44;;;;;;;16.60;3.28;;;;;;;;;;5010545;28;20058;-72
2021/08/26 02:12:29;;;;;;;14.88;3.33;;;;;;;;;;5011916;28;20054;-73
2021/08/26 02:15:15;;;;;;;20.55;4.40;;;;;;;;;;5013021;28;20062;-72
2021/08/26 02:18:00;;;;;;;14.57;3.50;;;;;;;;;;5014509;28;20497;-73
2021/08/26 02:20:45;;;;;;;12.80;3.10;;;;;;;;;;5014795;28;20054;-73
2021/08/26 02:23:30;;;;;;;15.05;3.80;;;;;;;;;;5014287;28;20049;-73
2021/08/26 02:26:16;;;;;;;15.82;4.07;;;;;;;;;;5014170;28;20504;-73
2021/08/26 02:29:01;;;;;;;14.82;4.00;;;;;;;;;;5014751;28;20054;-74
2021/08/26 02:31:46;;;;;;;14.90;3.05;;;;;;;;;;5000461;28;20401;-73
2021/08/26 02:34:32;;;;;;;10.20;3.50;;;;;;;;;;5015924;28;20386;-73
2021/08/26 02:37:17;;;;;;;16.75;4.03;;;;;;;;;;5033410;28;20060;-73
2021/08/26 02:40:02;;;;;;;13.82;4.03;;;;;;;;;;5033617;28;20061;-72
2021/08/26 02:42:47;;;;;;;18.83;4.07;;;;;;;;;;5033711;28;20053;-73
2021/08/26 02:45:32;;;;;;;13.43;4.32;;;;;;;;;;5023224;28;20050;-73
2021/08/26 02:48:17;;;;;;;12.65;3.53;;;;;;;;;;5013979;28;20504;-73
2021/08/26 02:51:02;;;;;;;17.83;4.25;;;;;;;;;;5014466;28;20057;-73
2021/08/26 02:53:47;;;;;;;16.55;3.38;;;;;;;;;;5013426;28;20139;-73
2021/08/26 02:56:32;;;;;;;17.60;3.80;;;;;;;;;;5013724;28;20057;-73
2021/08/26 02:59:17;;;;;;;21.75;4.18;;;;;;;;;;5013922;28;20061;-73
2021/08/26 03:02:02;;;;;;;16.25;3.33;;;;;;;;;;5013770;28;20058;-74
2021/08/26 03:04:47;;;;;;;19.20;4.50;;;;;;;;;;4999041;28;20120;-73
2021/08/26 03:07:32;;;;;;;16.27;4.10;;;;;;;;;;5032110;28;20058;-73
2021/08/26 03:10:17;;;;;;;17.23;4.00;;;;;;;;;;5033108;28;20053;-73
2021/08/26 03:13:03;;;;;;;14.60;3.20;;;;;;;;;;5033098;28;20107;-73
2021/08/26 03:15:49;;;;;;;17.83;2.90;;;;;;;;;;5030356;28;20156;-73
2021/08/26 03:18:34;;;;;;;18.67;3.83;;;;;;;;;;5012713;28;20520;-73
2021/08/26 03:21:19;;;;;;;14.90;3.67;;;;;;;;;;5013490;28;20086;-73
2021/08/26 03:24:05;;;;;;;17.77;2.95;;;;;;;;;;5013134;28;20057;-73
2021/08/26 03:26:50;;;;;;;12.05;2.55;;;;;;;;;;5014151;28;20046;-73
2021/08/26 03:29:35;;;;;;;13.23;3.42;;;;;;;;;;5012590;28;20054;-72
2021/08/26 03:32:21;;;;;;;10.25;2.70;;;;;;;;;;5012943;28;20050;-72
2021/08/26 03:35:06;;;;;;;13.68;3.10;;;;;;;;;;5012808;28;20054;-73
2021/08/26 03:37:52;;;;;;;12.43;3.25;;;;;;;;;;4999709;28;20054;-73
2021/08/26 03:40:37;;;;;;;11.10;2.63;;;;;;;;;;5012731;28;20085;-73
2021/08/26 03:43:22;;;;;;;14.82;2.92;;;;;;;;;;5013097;28;20485;-73
2021/08/26 03:46:08;;;;;;;11.25;2.70;;;;;;;;;;5013558;28;20054;-73
2021/08/26 03:48:53;;;;;;;13.13;2.33;;;;;;;;;;5012213;28;20386;-73
2021/08/26 03:51:38;;;;;;;12.20;3.55;;;;;;;;;;5012773;28;20512;-72
2021/08/26 03:54:23;;;;;;;13.77;3.70;;;;;;;;;;5012674;28;20054;-73
2021/08/26 03:57:08;;;;;;;13.23;3.03;;;;;;;;;;5012399;28;20129;-73
2021/08/26 03:59:53;;;;;;;17.10;3.22;;;;;;;;;;5032738;28;20053;-74
2021/08/26 04:02:38;;;;;;;13.50;3.63;;;;;;;;;;5033824;28;20381;-74
2021/08/26 04:05:24;;;;;;;11.38;3.03;;;;;;;;;;5032202;28;20504;-73
2021/08/26 04:08:09;;;;;;;13.00;3.03;;;;;;;;;;5031926;28;20125;-73
2021/08/26 04:10:54;;;;;;;13.05;3.65;;;;;;;;;;5032099;28;20049;-74
2021/08/26 04:13:39;;;;;;;19.15;2.88;;;;;;;;;;5018017;28;20053;-74
2021/08/26 04:16:24;;;;;;;13.38;2.70;;;;;;;;;;5026973;28;20051;-73
2021/08/26 04:19:09;;;;;;;10.18;2.78;;;;;;;;;;5011671;28;20125;-73
2021/08/26 04:21:54;;;;;;;15.35;3.72;;;;;;;;;;5013406;28;20125;-73
2021/08/26 04:24:40;;;;;;;15.88;3.65;;;;;;;;;;5013447;28;20042;-74
2021/08/26 04:27:25;;;;;;;16.67;3.78;;;;;;;;;;5011782;28;20061;-74
2021/08/26 04:30:10;;;;;;;15.00;3.97;;;;;;;;;;5012033;28;20520;-74
2021/08/26 04:32:56;;;;;;;17.75;3.85;;;;;;;;;;5011915;28;20054;-73
2021/08/26 04:35:41;;;;;;;12.63;2.67;;;;;;;;;;5011531;28;20054;-72
2021/08/26 04:38:26;;;;;;;11.50;3.38;;;;;;;;;;5027202;28;20404;-73
2021/08/26 04:41:11;;;;;;;11.40;3.25;;;;;;;;;;5031696;28;20058;-73
2021/08/26 04:43:56;;;;;;;19.23;3.75;;;;;;;;;;5031437;28;20045;-73
2021/08/26 04:46:41;;;;;;;10.05;2.63;;;;;;;;;;5030869;28;20393;-73
2021/08/26 04:49:27;;;;;;;13.35;3.60;;;;;;;;;;5011630;28;20485;-73
2021/08/26 04:52:12;;;;;;;15.27;3.08;;;;;;;;;;5011419;28;20057;-73
2021/08/26 04:54:57;;;;;;;14.77;3.67;;;;;;;;;;5011546;28;20061;-73
2021/08/26 04:57:42;;;;;;;16.15;3.65;;;;;;;;;;5011256;28;20050;-73
2021/08/26 05:00:27;;;;;;;15.43;3.42;;;;;;;;;;5010898;28;20061;-73
2021/08/26 05:03:12;;;;;;;20.17;3.40;;;;;;;;;;5013982;28;20058;-74
2021/08/26 05:05:58;;;;;;;13.63;3.05;;;;;;;;;;5011574;28;20049;-74
2021/08/26 05:08:43;;;;;;;11.48;3.17;;;;;;;;;;5010401;28;20421;-73
2021/08/26 05:11:28;;;;;;;16.20;3.72;;;;;;;;;;5010904;28;20054;-73
2021/08/26 05:14:13;;;;;;;16.67;4.65;;;;;;;;;;5011186;28;20525;-74
2021/08/26 05:16:59;;;;;;;15.20;3.83;;;;;;;;;;4997493;28;20050;-72
2021/08/26 05:19:44;;;;;;;17.23;3.67;;;;;;;;;;5010280;28;20124;-73
2021/08/26 05:22:29;;;;;;;18.65;3.95;;;;;;;;;;5010697;28;20049;-73
2021/08/26 05:25:14;;;;;;;16.17;3.58;;;;;;;;;;5010986;28;20069;-74
2021/08/26 05:27:59;;;;;;;17.08;3.95;;;;;;;;;;5012614;28;20107;-74
2021/08/26 05:30:44;;;;;;;17.95;3.58;;;;;;;;;;5011390;28;20058;-74
2021/08/26 05:33:30;;;;;;;18.23;3.58;;;;;;;;;;5011354;28;20046;-74
2021/08/26 05:36:15;;;;;;;15.95;3.85;;;;;;;;;;5037738;28;20060;-74
2021/08/26 05:39:00;;;;;;;17.20;3.97;;;;;;;;;;5020678;28;20085;-75
2021/08/26 05:41:45;;;;;;;19.67;3.70;;;;;;;;;;5022051;28;20061;-73
2021/08/26 05:44:30;;;;;;;16.40;4.38;;;;;;;;;;5020222;28;20390;-73
2021/08/26 05:47:15;;;;;;;19.42;4.68;;;;;;;;;;5030568;28;20061;-73
2021/08/26 05:50:00;;;;;;;20.23;4.53;;;;;;;;;;5032574;28;20500;-73
2021/08/26 05:52:45;;;;;;;12.88;3.60;;;;;;;;;;5033838;28;20558;-73
2021/08/26 05:55:30;;;;;;;13.10;4.50;;;;;;;;;;5034478;28;20385;-73
2021/08/26 05:58:15;;;;;;;17.45;4.57;;;;;;;;;;5033997;28;20058;-73
2021/08/26 06:01:00;;;;;;;21.13;5.03;;;;;;;;;;5027629;28;20050;-74
2021/08/26 06:03:46;;;;;;;21.92;5.20;;;;;;;;;;5034146;28;20095;-73
2021/08/26 06:06:31;;;;;;;19.92;5.15;;;;;;;;;;5020423;28;20092;-73
2021/08/26 06:09:16;;;;;;;18.73;5.45;;;;;;;;;;5034502;28;20156;-74
2021/08/26 06:12:01;;;;;;;15.43;4.57;;;;;;;;;;5016094;28;20057;-75
2021/08/26 06:14:46;;;;;;;17.15;5.03;;;;;;;;;;5014101;28;20054;-74
2021/08/26 06:17:31;;;;;;;21.23;5.07;;;;;;;;;;5014675;28;20058;-75
2021/08/26 06:20:17;;;;;;;15.85;5.75;;;;;;;;;;5000594;28;20129;-75
2021/08/26 06:23:02;;;;;;;22.20;5.40;;;;;;;;;;5013537;28;20062;-74
2021/08/26 06:25:47;;;;;;;17.65;4.60;;;;;;;;;;5014087;28;20128;-74
2021/08/26 06:28:32;;;;;;;17.90;5.38;;;;;;;;;;5015500;28;20125;-73
2021/08/26 06:31:17;;;;;;;18.13;4.97;;;;;;;;;;5018295;28;20042;-74
2021/08/26 06:34:02;;;;;;;21.65;5.93;;;;;;;;;;5022654;28;20117;-74
2021/08/26 06:36:47;;;;;;;14.13;4.60;;;;;;;;;;5024864;28;20432;-75
2021/08/26 06:39:32;;;;;;;21.35;5.30;;;;;;;;;;5026957;28;20060;-75
2021/08/26 06:42:17;;;;;;;18.90;6.18;;;;;;;;;;5018752;28;20068;-74
2021/08/26 06:45:02;;;;;;;13.55;5.25;;;;;;;;;;5013226;28;20067;-75
2021/08/26 06:47:48;;;;;;;20.55;6.15;;;;;;;;;;5013880;28;20062;-74
2021/08/26 06:50:33;;;;;;;18.35;5.80;;;;;;;;;;4999754;28;20124;-74
2021/08/26 06:53:18;;;;;;;18.38;7.43;;;;;;;;;;5000051;28;20054;-75
2021/08/26 06:56:03;;;;;;;21.70;5.47;;;;;;;;;;5013737;28;20133;-75
2021/08/26 06:58:48;;;;;;;21.55;5.05;;;;;;;;;;5013582;28;20069;-75
2021/08/26 07:01:33;;;;;;;18.45;5.45;;;;;;;;;;5000524;28;20054;-74
2021/08/26 07:04:19;;;;;;;15.63;5.28;;;;;;;;;;5014539;28;20054;-74
2021/08/26 07:07:04;;;;;;;17.52;5.22;;;;;;;;;;5023987;28;20142;-73
2021/08/26 07:09:49;;;;;;;19.40;5.75;;;;;;;;;;5010252;28;20045;-74
2021/08/26 07:12:34;;;;;;;17.48;4.90;;;;;;;;;;5021478;28;20547;-74
2021/08/26 07:15:24;;;;;;;23.13;7.28;;;;;;;;;;4999340;28;20045;-76
2021/08/26 07:18:11;;;;;;;16.92;5.57;;;;;;;;;;5023527;28;20050;-75
2021/08/26 07:20:56;;;;;;;24.02;5.55;;;;;;;;;;5007308;28;20057;-74
2021/08/26 07:23:41;;;;;;;24.48;6.38;;;;;;;;;;5020851;28;20054;-75
2021/08/26 07:26:26;;;;;;;20.88;5.93;;;;;;;;;;5023669;28;20113;-74
2021/08/26 07:29:11;;;;;;;26.10;6.35;;;;;;;;;;5013145;28;20049;-75
2021/08/26 07:31:56;;;;;;;22.05;5.28;;;;;;;;;;5012316;28;20124;-74
2021/08/26 07:34:42;;;;;;;26.90;6.43;;;;;;;;;;5012032;28;20046;-74
2021/08/26 07:37:27;;;;;;;21.45;5.40;;;;;;;;;;5012952;28;20394;-73
2021/08/26 07:40:12;;;;;;;24.20;5.32;;;;;;;;;;5013070;28;20050;-74
2021/08/26 07:42:57;;;;;;;17.83;4.90;;;;;;;;;;5012097;28;20057;-73
2021/08/26 07:45:42;;;;;;;20.92;5.75;;;;;;;;;;5012176;28;20058;-75
2021/08/26 07:48:28;;;;;;;17.42;4.85;;;;;;;;;;5022389;28;20056;-74
2021/08/26 07:51:13;;;;;;;20.90;5.45;;;;;;;;;;5023130;28;20053;-74
2021/08/26 07:53:59;;;;;;;22.45;6.25;;;;;;;;;;5019238;28;20049;-73
2021/08/26 07:56:44;;;;;;;21.10;5.20;;;;;;;;;;5023322;28;20120;-74
2021/08/26 07:59:29;;;;;;;18.08;5.43;;;;;;;;;;4998991;28;20129;-74
2021/08/26 08:02:14;;;;;;;25.35;6.25;;;;;;;;;;5012320;28;20054;-75
2021/08/26 08:05:00;;;;;;;28.80;7.30;;;;;;;;;;4998804;28;20397;-75
2021/08/26 08:07:45;;;;;;;15.63;5.55;;;;;;;;;;5013638;28;20038;-74
2021/08/26 08:10:30;;;;;;;15.90;5.55;;;;;;;;;;5019695;28;20053;-75
2021/08/26 08:13:15;;;;;;;22.63;6.10;;;;;;;;;;5031665;28;20057;-73
2021/08/26 08:16:03;;;;;;;22.58;5.03;;;;;;;;;;5031861;28;20184;-74
2021/08/26 08:18:49;;;;;;;23.33;5.72;;;;;;;;;;5031756;28;20107;-80
2021/08/26 08:21:34;;;;;;;28.80;6.32;;;;;;;;;;5009287;28;20062;-75
2021/08/26 08:24:19;;;;;;;21.92;5.10;;;;;;;;;;4983710;28;20089;-75
2021/08/26 08:27:04;;;;;;;24.05;5.43;;;;;;;;;;5012131;28;20057;-75
2021/08/26 08:29:50;;;;;;;19.83;5.18;;;;;;;;;;5012328;28;20058;-74
2021/08/26 08:32:35;;;;;;;18.73;4.30;;;;;;;;;;5011330;28;20421;-73
2021/08/26 08:35:20;;;;;;;17.67;4.00;;;;;;;;;;5011493;28;20057;-73
2021/08/26 08:38:05;;;;;;;16.13;4.97;;;;;;;;;;4998099;28;20049;-73
2021/08/26 08:40:50;;;;;;;19.10;5.60;;;;;;;;;;5012047;28;20050;-74
2021/08/26 08:43:36;;;;;;;20.65;5.20;;;;;;;;;;5011546;28;20064;-73
2021/08/26 08:46:21;;;;;;;22.00;5.20;;;;;;;;;;5011623;28;20050;-73
2021/08/26 08:49:06;;;;;;;20.75;4.55;;;;;;;;;;5011549;28;20061;-74
2021/08/26 08:51:52;;;;;;;41.53;8.10;;;;;;;;;;5010525;28;20085;-73
2021/08/26 08:54:37;;;;;;;24.75;6.20;;;;;;;;;;4970325;28;20153;-73
2021/08/26 08:57:22;;;;;;;21.23;5.38;;;;;;;;;;5011540;28;20054;-73
2021/08/26 09:00:08;;;;;;;23.50;5.85;;;;;;;;;;5012805;28;20053;-73
2021/08/26 09:02:54;;;;;;;24.88;5.60;;;;;;;;;;5016965;28;20406;-74
2021/08/26 09:05:50;;;;;;;23.23;5.10;;;;;;;;;;5030205;28;20062;-73
2021/08/26 09:08:35;;;;;;;14.77;4.18;;;;;;;;;;5031130;28;20049;-73
2021/08/26 09:11:20;;;;;;;18.33;4.95;;;;;;;;;;5031296;28;20081;-73
2021/08/26 09:14:07;;;;;;;22.25;4.90;;;;;;;;;;5016803;28;20489;-73
2021/08/26 09:16:54;;;;;;;17.23;5.03;;;;;;;;;;5012340;28;20125;-73
2021/08/26 09:19:43;;;;;;;18.05;4.75;;;;;;;;;;5011139;28;20504;-73
2021/08/26 09:22:28;;;;;;;22.50;5.63;;;;;;;;;;5010391;28;20049;-74
2021/08/26 09:25:14;;;;;;;21.88;5.40;;;;;;;;;;5027153;28;20057;-73
2021/08/26 09:27:59;;;;;;;17.23;4.13;;;;;;;;;;5030774;28;20063;-73
2021/08/26 09:30:44;;;;;;;19.38;4.50;;;;;;;;;;5030768;28;20057;-73
2021/08/26 09:33:29;;;;;;;16.98;4.22;;;;;;;;;;5029884;28;20453;-73
2021/08/26 09:36:18;;;;;;;21.35;5.22;;;;;;;;;;4996900;28;20075;-74
2021/08/26 09:39:03;;;;;;;17.95;4.85;;;;;;;;;;5010936;28;20497;-74
2021/08/26 09:41:52;;;;;;;16.48;5.38;;;;;;;;;;5011012;28;20085;-74
2021/08/26 09:44:37;;;;;;;18.65;4.63;;;;;;;;;;5011290;28;20390;-73
2021/08/26 09:47:22;;;;;;;22.10;5.15;;;;;;;;;;5010959;28;20064;-74
2021/08/26 09:50:08;;;;;;;15.52;4.32;;;;;;;;;;5011077;28;20054;-74
2021/08/26 09:52:53;;;;;;;14.73;3.13;;;;;;;;;;5010778;28;20054;-74
2021/08/26 09:55:54;;;;;;;16.40;3.20;;;;;;;;;;5020534;28;20050;-74
2021/08/26 09:58:39;;;;;;;14.27;4.32;;;;;;;;;;5016128;28;20053;-73
2021/08/26 10:01:24;;;;;;;16.10;4.28;;;;;;;;;;5025506;28;20049;-73
2021/08/26 10:04:28;;;;;;;11.77;3.42;;;;;;;;;;5030190;28;20550;-74
2021/08/26 10:07:13;;;;;;;16.85;4.25;;;;;;;;;;5011009;28;20406;-73
2021/08/26 10:09:58;;;;;;;15.32;3.65;;;;;;;;;;4996956;28;20450;-74
2021/08/26 10:12:44;;;;;;;12.98;3.97;;;;;;;;;;4996995;28;20050;-74
2021/08/26 10:15:29;;;;;;;14.27;3.88;;;;;;;;;;5011086;28;20140;-74
2021/08/26 10:18:18;;;;;;;15.63;3.13;;;;;;;;;;5030219;28;20448;-74
2021/08/26 10:21:06;;;;;;;14.80;3.40;;;;;;;;;;5030419;28;20049;-73
2021/08/26 10:23:51;;;;;;;18.88;4.63;;;;;;;;;;5030195;28;20102;-74
2021/08/26 10:26:37;;;;;;;14.85;3.90;;;;;;;;;;5014910;28;20057;-74
2021/08/26 10:29:22;;;;;;;18.27;4.25;;;;;;;;;;5016021;28;20148;-74
2021/08/26 10:32:07;;;;;;;12.52;3.35;;;;;;;;;;5030059;28;20088;-74
2021/08/26 10:35:06;;;;;;;12.88;3.80;;;;;;;;;;5022754;28;20042;-74
2021/08/26 10:37:55;;;;;;;12.13;3.72;;;;;;;;;;5014392;28;20153;-74
2021/08/26 10:40:41;;;;;;;25.13;4.82;;;;;;;;;;5000629;28;20082;-74
2021/08/26 10:43:36;;;;;;;15.25;3.17;;;;;;;;;;5013898;28;20088;-74
2021/08/26 10:46:21;;;;;;;15.68;3.80;;;;;;;;;;5021758;28;20061;-74
2021/08/26 10:49:06;;;;;;;11.35;3.63;;;;;;;;;;5006217;28;20401;-74
2021/08/26 10:51:52;;;;;;;12.02;3.08;;;;;;;;;;5005037;28;20064;-74
2021/08/26 10:54:37;;;;;;;13.48;3.50;;;;;;;;;;5013419;28;20054;-73
2021/08/26 10:57:29;;;;;;;14.80;3.67;;;;;;;;;;5014046;28;20121;-73
2021/08/26 11:00:15;;;;;;;;;;;;;;;;;;4999604;28;20057;-74
2021/08/26 11:03:00;;;;;;;13.52;3.40;;;;;;;;;;5031853;28;19921;-74
2021/08/26 11:05:47;;;;;;;16.17;4.03;;;;;;;;;;5019325;28;20083;-74
2021/08/26 11:08:36;;;;;;;13.73;4.18;;;;;;;;;;5033287;28;20064;-74
2021/08/26 11:11:45;;;;;;;11.00;3.15;;;;;;;;;;5030321;28;20053;-74
2021/08/26 11:14:31;;;;;;;11.30;3.35;;;;;;;;;;5032182;28;20500;-73
2021/08/26 11:17:25;;;;;;;11.02;3.58;;;;;;;;;;5019415;28;20085;-74
2021/08/26 11:20:26;;;;;;;13.85;3.72;;;;;;;;;;5034546;28;20053;-74
2021/08/26 11:23:11;;;;;;;13.50;3.35;;;;;;;;;;5014023;28;20054;-73
2021/08/26 11:25:57;;;;;;;11.68;3.88;;;;;;;;;;5013466;28;20402;-74
2021/08/26 11:28:43;;;;;;;9.25;2.83;;;;;;;;;;5014216;28;20128;-74
2021/08/26 11:31:28;;;;;;;10.77;3.15;;;;;;;;;;5012317;28;20503;-74
2021/08/26 11:34:14;;;;;;;11.68;3.20;;;;;;;;;;5012151;28;20058;-74
2021/08/26 11:37:00;;;;;;;12.20;3.60;;;;;;;;;;5013037;28;20085;-73
2021/08/26 11:39:46;;;;;;;11.35;2.97;;;;;;;;;;5012946;28;20054;-73
2021/08/26 11:42:32;;;;;;;9.52;2.97;;;;;;;;;;4998053;28;20156;-74
2021/08/26 11:45:28;;;;;;;14.63;4.30;;;;;;;;;;4997675;28;20370;-74
2021/08/26 11:48:13;;;;;;;12.98;4.65;;;;;;;;;;5013399;28;20117;-75
2021/08/26 11:50:59;;;;;;;15.48;4.25;;;;;;;;;;5012745;28;20050;-74
2021/08/26 11:53:44;;;;;;;15.90;4.38;;;;;;;;;;5011568;28;20046;-74
2021/08/26 11:56:29;;;;;;;12.55;4.40;;;;;;;;;;5012136;28;20049;-74
2021/08/26 11:59:24;;;;;;;12.32;3.83;;;;;;;;;;5012783;28;20061;-74
2021/08/26 12:02:18;;;;;;;17.45;4.65;;;;;;;;;;4998699;28;20058;-75
2021/08/26 12:05:04;;;;;;;14.05;5.13;;;;;;;;;;5030244;28;20057;-64
2021/08/26 12:07:50;;;;;;;21.73;5.70;;;;;;;;;;5032272;28;20064;-65
2021/08/26 12:10:39;;;;;;;16.02;4.38;;;;;;;;;;5033634;28;20057;-65
2021/08/26 12:13:28;;;;;;;21.52;4.10;;;;;;;;;;5030595;28;20050;-65
2021/08/26 12:16:13;;;;;;;14.32;3.88;;;;;;;;;;5033656;28;20049;-65
2021/08/26 12:18:58;;;;;;;17.60;3.92;;;;;;;;;;5032433;28;20124;-64
2021/08/26 12:21:43;;;;;;;13.73;3.83;;;;;;;;;;5032429;28;20045;-64
2021/08/26 12:24:28;;;;;;;18.92;3.95;;;;;;;;;;5022768;28;20062;-64
2021/08/26 12:27:14;;;;;;;14.38;3.00;;;;;;;;;;5012453;28;20054;-64
2021/08/26 12:29:59;;;;;;;14.02;2.97;;;;;;;;;;5012391;28;20508;-64
2021/08/26 12:32:44;;;;;;;6.22;1.63;;;;;;;;;;5012571;28;20085;-64
2021/08/26 12:35:30;;;;;;;7.10;1.13;;;;;;;;;;5024039;28;20507;-64
2021/08/26 12:38:16;;;;;;;7.70;1.15;;;;;;;;;;5032135;28;20413;-64
2021/08/26 12:41:01;;;;;;;6.28;1.08;;;;;;;;;;5032112;28;20089;-64
2021/08/26 12:43:48;;;;;;;8.75;1.02;;;;;;;;;;5031880;28;20085;-64
2021/08/26 12:46:33;;;;;;;2.58;0.50;;;;;;;;;;5011696;28;20058;-64
2021/08/26 12:49:18;;;;;;;3.60;0.30;;;;;;;;;;5011790;28;20058;-64
2021/08/26 12:52:03;;;;;;;7.72;1.55;;;;;;;;;;5011221;28;20061;-64
2021/08/26 12:54:57;;;;;;;3.75;1.05;;;;;;;;;;5011049;28;20041;-64
2021/08/26 12:57:43;;;;;;;11.88;1.20;;;;;;;;;;5012067;28;20092;-64
2021/08/26 13:00:38;;;;;;;8.07;1.10;;;;;;;;;;5012059;28;20054;-64
2021/08/26 13:03:24;;;;;;;5.72;0.45;;;;;;;;;;5011971;28;20054;-64
2021/08/26 13:06:09;;;;;;;4.95;0.73;;;;;;;;;;5019969;28;20053;-64
2021/08/26 13:08:54;;;;;;;2.63;0.50;;;;;;;;;;5031031;28;20049;-64
2021/08/26 13:12:00;;;;;;;14.98;1.30;;;;;;;;;;5031675;28;20176;-64
2021/08/26 13:14:45;;;;;;;4.15;0.52;;;;;;;;;;5031215;28;20053;-64
2021/08/26 13:17:30;;;;;;;7.65;0.68;;;;;;;;;;5028798;28;20058;-64
2021/08/26 13:20:15;;;;;;;13.23;1.77;;;;;;;;;;5031604;28;20057;-64
2021/08/26 13:23:01;;;;;;;4.80;0.50;;;;;;;;;;4995812;28;1036865;-64
2021/08/26 13:25:46;;;;;;;5.43;1.23;;;;;;;;;;5030854;28;20053;-64
2021/08/26 13:28:32;;;;;;;7.10;0.50;;;;;;;;;;5011555;28;20116;-64
2021/08/26 13:31:17;;;;;;;4.82;0.57;;;;;;;;;;5012451;28;20046;-64
2021/08/26 13:34:02;;;;;;;2.97;0.32;;;;;;;;;;5011895;28;20092;-64
2021/08/26 13:36:48;;;;;;;1.15;0.17;;;;;;;;;;5015033;28;20061;-64
2021/08/26 13:39:33;;;;;;;1.48;0.35;;;;;;;;;;5031393;28;20050;-64
2021/08/26 13:42:18;;;;;;;2.40;0.43;;;;;;;;;;5031789;28;20045;-64
2021/08/26 13:45:04;;;;;;;3.33;0.35;;;;;;;;;;5031916;28;20045;-64
2021/08/26 13:47:50;;;;;;;2.40;0.40;;;;;;;;;;5020533;28;20054;-64
2021/08/26 13:50:37;;;;;;;10.23;0.90;;;;;;;;;;5011741;28;20512;-64
2021/08/26 13:53:22;;;;;;;2.08;0.25;;;;;;;;;;5012209;28;20049;-64
2021/08/26 13:56:07;;;;;;;2.95;0.30;;;;;;;;;;5012282;28;20046;-64
2021/08/26 13:58:54;;;;;;;1.63;0.38;;;;;;;;;;5010565;28;20046;-64
2021/08/26 14:01:39;;;;;;;6.18;0.90;;;;;;;;;;5011931;28;20050;-64
2021/08/26 14:04:24;;;;;;;4.22;0.50;;;;;;;;;;5011916;28;20062;-64
2021/08/26 14:07:10;;;;;;;2.00;0.40;;;;;;;;;;5012148;28;20054;-64
2021/08/26 14:09:56;;;;;;;4.10;0.77;;;;;;;;;;5012935;28;20441;-64
2021/08/26 14:12:41;;;;;;;2.58;0.20;;;;;;;;;;5015757;28;20504;-64
2021/08/26 14:15:27;;;;;;;2.63;0.40;;;;;;;;;;5015654;28;20393;-64
2021/08/26 14:18:12;;;;;;;4.22;0.43;;;;;;;;;;5016035;28;20049;-64
2021/08/26 14:20:57;;;;;;;2.40;0.63;;;;;;;;;;5016038;28;20050;-64
2021/08/26 14:23:43;;;;;;;4.00;0.65;;;;;;;;;;5015818;28;20053;-65
2021/08/26 14:26:28;;;;;;;3.67;0.50;;;;;;;;;;5015858;28;20088;-65
2021/08/26 14:29:14;;;;;;;2.97;0.50;;;;;;;;;;5015156;28;20124;-65
2021/08/26 14:31:59;;;;;;;3.53;0.63;;;;;;;;;;5015066;28;20054;-65
2021/08/26 14:34:44;;;;;;;2.10;0.30;;;;;;;;;;5015450;28;20049;-65
2021/08/26 14:37:30;;;;;;;4.97;0.63;;;;;;;;;;5015581;28;20054;-65
2021/08/26 14:40:15;;;;;;;2.50;0.60;;;;;;;;;;5014227;28;20054;-65
2021/08/26 14:43:00;;;;;;;2.75;0.50;;;;;;;;;;5015236;28;20124;-65
2021/08/26 14:45:46;;;;;;;5.82;0.73;;;;;;;;;;5015299;28;20050;-65
2021/08/26 14:48:31;;;;;;;4.32;0.68;;;;;;;;;;5015279;28;20069;-66
2021/08/26 14:51:16;;;;;;;2.70;0.52;;;;;;;;;;5014603;28;20564;-65
2021/08/26 14:54:02;;;;;;;4.97;0.77;;;;;;;;;;5014944;28;20413;-65
2021/08/26 14:56:47;;;;;;;1.98;0.60;;;;;;;;;;5015190;28;20055;-65
2021/08/26 14:59:32;;;;;;;4.05;0.35;;;;;;;;;;5014443;28;20046;-70
2021/08/26 15:02:18;;;;;;;1.85;0.40;;;;;;;;;;5033256;28;20120;-70
2021/08/26 15:05:04;;;;;;;3.55;1.00;;;;;;;;;;5033901;28;20053;-71
2021/08/26 15:07:49;;;;;;;5.65;0.88;;;;;;;;;;5019421;28;20057;-70
2021/08/26 15:10:34;;;;;;;3.85;0.60;;;;;;;;;;5026923;28;20053;-70
2021/08/26 15:13:20;;;;;;;3.67;0.63;;;;;;;;;;5014130;28;20081;-70
2021/08/26 15:16:05;;;;;;;4.93;0.45;;;;;;;;;;5014604;28;20560;-70
2021/08/26 15:18:51;;;;;;;5.72;0.73;;;;;;;;;;5014719;28;20398;-70
2021/08/26 15:21:36;;;;;;;4.55;0.73;;;;;;;;;;5011804;28;20053;-70
2021/08/26 15:24:21;;;;;;;3.00;0.77;;;;;;;;;;5013038;28;20061;-70
2021/08/26 15:27:06;;;;;;;5.18;0.60;;;;;;;;;;5014602;28;20057;-70
2021/08/26 15:29:52;;;;;;;3.60;0.70;;;;;;;;;;5014410;28;20421;-70
2021/08/26 15:32:39;;;;;;;2.67;0.57;;;;;;;;;;5027162;28;20057;-70
2021/08/26 15:35:24;;;;;;;3.72;0.40;;;;;;;;;;5033777;28;20049;-70
2021/08/26 15:38:09;;;;;;;8.43;0.85;;;;;;;;;;5034168;28;20054;-70
2021/08/26 15:40:54;;;;;;;4.78;0.60;;;;;;;;;;5017275;28;20129;-70
2021/08/26 15:43:40;;;;;;;2.95;1.05;;;;;;;;;;5013865;28;20059;-70
2021/08/26 15:46:25;;;;;;;3.40;0.60;;;;;;;;;;5013170;28;20089;-70
2021/08/26 15:49:10;;;;;;;2.25;0.65;;;;;;;;;;5013036;28;20054;-70
2021/08/26 15:51:59;;;;;;;4.97;1.13;;;;;;;;;;5016964;28;20045;-70
2021/08/26 15:58:13;;;;;;;3.60;0.80;;;;;;;;;;5024269;28;20050;-70
2021/08/26 16:01:06;;;;;;;3.08;0.52;;;;;;;;;;5024273;28;20049;-70
2021/08/26 16:03:52;;;;;;;5.53;0.75;;;;;;;;;;5023893;28;20049;-70
2021/08/26 16:06:37;;;;;;;5.70;0.75;;;;;;;;;;5046212;28;20504;-70
2021/08/26 16:09:22;;;;;;;2.30;0.55;;;;;;;;;;5033483;28;20049;-70
2021/08/26 16:12:08;;;;;;;1.55;0.40;;;;;;;;;;5032022;28;20132;-70
2021/08/26 16:14:55;;;;;;;1.75;0.35;;;;;;;;;;5016378;28;20553;-70
2021/08/26 16:17:40;;;;;;;2.88;1.30;;;;;;;;;;5032057;28;20049;-70
2021/08/26 16:20:25;;;;;;;3.47;0.50;;;;;;;;;;5033299;28;20045;-70
2021/08/26 16:23:11;;;;;;;1.40;0.20;;;;;;;;;;5025121;28;20057;-70
2021/08/26 16:25:57;;;;;;;3.67;0.47;;;;;;;;;;5011952;28;20057;-70
2021/08/26 16:28:42;;;;;;;2.97;0.43;;;;;;;;;;5013274;28;20060;-70
2021/08/26 16:31:27;;;;;;;1.65;0.40;;;;;;;;;;5013333;28;20049;-70
2021/08/26 16:34:12;;;;;;;3.63;0.75;;;;;;;;;;5011952;28;20049;-70